createdAt,value
2022-11-12T00:02:27.397Z,95.70
2022-11-12T00:05:32.586Z,95.90
2022-11-12T00:08:40.174Z,96.10
2022-11-12T00:11:44.309Z,96.00
2022-11-12T00:14:48.738Z,96.00
2022-11-12T00:17:56.247Z,96.20
2022-11-12T00:21:00.608Z,96.50
2022-11-12T00:24:05.070Z,96.70
2022-11-12T00:27:09.355Z,96.90
2022-11-12T00:30:14.229Z,96.90
2022-11-12T00:33:18.519Z,97.30
2022-11-12T00:36:22.858Z,97.00
2022-11-12T00:39:27.726Z,97.20
2022-11-12T00:42:31.879Z,97.20
2022-11-12T00:45:36.374Z,97.30
2022-11-12T00:48:41.034Z,97.40
2022-11-12T00:51:45.493Z,97.50
2022-11-12T00:54:49.919Z,97.30
2022-11-12T00:57:54.479Z,97.30
2022-11-12T01:01:04.178Z,97.30
2022-11-12T01:04:08.665Z,97.40
2022-11-12T01:07:13.023Z,97.40
2022-11-12T01:10:17.189Z,97.50
2022-11-12T01:13:21.626Z,97.60
2022-11-12T01:16:31.653Z,97.40
2022-11-12T01:19:36.115Z,97.30
2022-11-12T01:22:40.299Z,97.30
2022-11-12T01:25:44.677Z,97.10
2022-11-12T01:28:49.295Z,97.00
2022-11-12T01:31:53.398Z,96.90
2022-11-12T01:34:57.855Z,96.90
2022-11-12T01:38:02.053Z,97.00
2022-11-12T01:41:08.044Z,97.20
2022-11-12T01:44:17.502Z,97.10
2022-11-12T01:47:26.582Z,97.10
2022-11-12T01:50:36.556Z,97.00
2022-11-12T01:53:45.799Z,97.10
2022-11-12T01:56:51.513Z,97.30
2022-11-12T02:00:00.956Z,97.40
2022-11-12T02:03:09.959Z,97.10
2022-11-12T02:06:20.084Z,97.00
2022-11-12T02:09:25.263Z,97.30
2022-11-12T02:12:48.020Z,97.20
2022-11-12T02:15:52.889Z,96.90
2022-11-12T02:18:59.806Z,97.10
2022-11-12T02:22:03.942Z,97.00
2022-11-12T02:25:12.655Z,97.00
2022-11-12T02:28:18.002Z,97.50
2022-11-12T02:31:22.226Z,97.40
2022-11-12T02:34:26.398Z,97.30
2022-11-12T02:37:33.444Z,97.10
2022-11-12T02:40:37.700Z,97.10
2022-11-12T02:43:46.258Z,96.90
2022-11-12T02:46:50.699Z,96.90
2022-11-12T02:49:58.697Z,96.90
2022-11-12T02:53:04.321Z,96.90
2022-11-12T02:56:08.600Z,96.80
2022-11-12T02:59:13.696Z,96.90
2022-11-12T03:02:18.023Z,97.20
2022-11-12T03:05:22.542Z,96.90
2022-11-12T03:08:28.264Z,96.60
2022-11-12T03:11:32.631Z,96.80
2022-11-12T03:14:36.850Z,96.70
2022-11-12T03:17:41.158Z,96.80
2022-11-12T03:20:45.629Z,96.70
2022-11-12T03:23:50.185Z,96.80
2022-11-12T03:26:54.906Z,96.70
2022-11-12T03:29:58.991Z,96.90
2022-11-12T03:33:04.267Z,96.70
2022-11-12T03:36:08.660Z,96.60
2022-11-12T03:39:12.823Z,96.60
2022-11-12T03:42:17.128Z,96.80
2022-11-12T03:45:26.996Z,97.00
2022-11-12T03:48:31.490Z,97.10
2022-11-12T03:51:36.532Z,97.20
2022-11-12T03:54:40.831Z,96.80
2022-11-12T03:57:47.331Z,96.50
2022-11-12T04:00:51.723Z,96.70
2022-11-12T04:03:55.882Z,96.40
2022-11-12T04:07:18.573Z,95.90
2022-11-12T04:10:23.203Z,96.10
2022-11-12T04:13:27.909Z,95.70
2022-11-12T04:16:51.522Z,96.00
2022-11-12T04:20:14.144Z,95.60
2022-11-12T04:23:18.384Z,95.30
2022-11-12T04:26:25.460Z,95.60
2022-11-12T04:29:48.356Z,95.80
2022-11-12T04:32:54.880Z,95.80
2022-11-12T04:36:01.278Z,95.80
2022-11-12T04:39:05.391Z,95.80
2022-11-12T04:42:29.258Z,95.70
2022-11-12T04:45:34.171Z,95.60
2022-11-12T04:48:38.259Z,95.40
2022-11-12T04:52:01.337Z,95.30
2022-11-12T04:55:06.207Z,95.50
2022-11-12T04:58:10.736Z,95.30
2022-11-12T05:01:17.587Z,95.70
2022-11-12T05:04:27.588Z,95.80
2022-11-12T05:07:33.115Z,95.70
2022-11-12T05:10:40.290Z,95.80
2022-11-12T05:13:44.274Z,95.90
2022-11-12T05:16:48.602Z,95.80
2022-11-12T05:19:52.987Z,95.90
2022-11-12T05:23:06.644Z,95.80
2022-11-12T05:26:11.605Z,95.80
2022-11-12T05:29:16.383Z,95.90
2022-11-12T05:32:20.492Z,95.70
2022-11-12T05:35:24.657Z,95.60
2022-11-12T05:38:29.058Z,95.50
2022-11-12T05:41:58.068Z,95.30
2022-11-12T05:44:57.590Z,95.20
2022-11-12T05:48:01.977Z,95.20
2022-11-12T05:51:12.943Z,95.30
2022-11-12T05:54:18.524Z,95.20
2022-11-12T05:57:25.071Z,95.30
2022-11-12T06:00:29.298Z,95.30
2022-11-12T06:03:34.976Z,95.30
2022-11-12T06:06:40.503Z,95.30
2022-11-12T06:09:44.873Z,95.30
2022-11-12T06:12:48.929Z,95.40
2022-11-12T06:15:54.697Z,95.50
2022-11-12T06:18:59.153Z,95.50
2022-11-12T06:22:03.222Z,95.60
2022-11-12T06:25:08.050Z,95.60
2022-11-12T06:28:12.690Z,95.60
2022-11-12T06:31:17.651Z,95.60
2022-11-12T06:34:21.490Z,95.80
2022-11-12T06:37:25.954Z,95.80
2022-11-12T06:40:30.207Z,95.80
2022-11-12T06:43:35.701Z,95.90
2022-11-12T06:46:40.151Z,96.00
2022-11-12T06:49:44.494Z,95.90
2022-11-12T06:52:48.883Z,96.00
2022-11-12T06:55:53.461Z,96.10
2022-11-12T06:58:57.700Z,96.20
2022-11-12T07:02:04.993Z,96.20
2022-11-12T07:05:09.579Z,96.30
2022-11-12T07:08:13.962Z,96.30
2022-11-12T07:11:19.475Z,96.40
2022-11-12T07:14:23.888Z,96.40
2022-11-12T07:17:28.236Z,96.50
2022-11-12T07:20:32.788Z,96.50
2022-11-12T07:23:37.861Z,96.60
2022-11-12T07:26:47.248Z,96.70
2022-11-12T07:29:52.303Z,96.80
2022-11-12T07:32:58.098Z,96.90
2022-11-12T07:36:08.353Z,96.80
2022-11-12T07:39:13.382Z,96.90
2022-11-12T07:42:17.557Z,96.80
2022-11-12T07:45:22.111Z,96.80
2022-11-12T07:48:27.578Z,96.90
2022-11-12T07:51:32.709Z,97.00
2022-11-12T07:54:36.862Z,97.00
2022-11-12T07:57:41.159Z,96.90
2022-11-12T08:00:45.434Z,97.00
2022-11-12T08:03:50.618Z,97.00
2022-11-12T08:06:54.849Z,97.00
2022-11-12T08:10:01.586Z,97.00
2022-11-12T08:13:06.117Z,97.20
2022-11-12T08:16:10.490Z,97.10
2022-11-12T08:19:14.478Z,97.20
2022-11-12T08:22:18.819Z,97.30
2022-11-12T08:25:23.427Z,97.40
2022-11-12T08:28:35.715Z,97.40
2022-11-12T08:31:40.188Z,97.50
2022-11-12T08:34:44.404Z,97.50
2022-11-12T08:37:48.833Z,97.50
2022-11-12T08:40:53.114Z,97.30
2022-11-12T08:43:58.220Z,97.30
2022-11-12T08:47:02.957Z,97.30
2022-11-12T08:50:07.742Z,97.50
2022-11-12T08:53:15.999Z,97.60
2022-11-12T08:56:20.294Z,97.60
2022-11-12T08:59:24.634Z,97.70
2022-11-12T09:02:31.650Z,97.70
2022-11-12T09:05:35.972Z,97.70
2022-11-12T09:08:42.966Z,97.80
2022-11-12T09:11:52.539Z,97.70
2022-11-12T09:15:09.646Z,97.80
2022-11-12T09:18:21.099Z,97.70
2022-11-12T09:21:25.169Z,97.90
2022-11-12T09:24:29.613Z,97.80
2022-11-12T09:27:34.011Z,97.70
2022-11-12T09:30:43.186Z,97.70
2022-11-12T09:33:50.038Z,97.70
2022-11-12T09:36:55.682Z,97.80
2022-11-12T09:39:59.743Z,97.60
2022-11-12T09:43:27.155Z,97.60
2022-11-12T09:46:55.201Z,97.50
2022-11-12T09:50:29.493Z,97.70
2022-11-12T09:53:44.533Z,97.70
2022-11-12T09:56:49.830Z,97.60
2022-11-12T09:59:54.118Z,97.70
2022-11-12T10:03:13.943Z,97.70
2022-11-12T10:06:31.574Z,97.70
2022-11-12T10:10:11.444Z,97.80
2022-11-12T10:13:38.166Z,97.70
2022-11-12T10:16:51.154Z,97.80
2022-11-12T10:20:16.907Z,97.80
2022-11-12T10:23:26.650Z,97.80
2022-11-12T10:26:32.554Z,97.70
2022-11-12T10:29:51.435Z,98.00
2022-11-12T10:32:55.715Z,97.80
2022-11-12T10:36:22.122Z,97.90
2022-11-12T10:39:38.453Z,97.80
2022-11-12T10:43:03.689Z,97.40
2022-11-12T10:46:20.202Z,97.50
2022-11-12T10:49:25.116Z,97.50
2022-11-12T10:52:35.537Z,97.50
2022-11-12T10:55:58.767Z,97.60
2022-11-12T10:59:10.939Z,97.70
2022-11-12T11:02:18.930Z,97.10
2022-11-12T11:05:38.464Z,96.40
2022-11-12T11:08:51.718Z,96.20
2022-11-12T11:11:55.907Z,96.00
2022-11-12T11:15:22.233Z,95.80
2022-11-12T11:18:27.524Z,93.70
2022-11-12T11:21:50.416Z,92.40
2022-11-12T11:25:23.138Z,91.50
2022-11-12T11:28:47.181Z,92.40
2022-11-12T11:32:06.038Z,91.80
2022-11-12T11:35:15.971Z,88.30
2022-11-12T11:38:39.822Z,83.80
2022-11-12T11:41:56.893Z,78.60
2022-11-12T11:45:28.968Z,76.00
2022-11-12T11:48:58.457Z,69.20
2022-11-12T11:52:12.231Z,66.20
2022-11-12T11:55:34.500Z,60.10
2022-11-12T11:59:02.750Z,55.50
2022-11-12T12:02:54.455Z,52.30
2022-11-12T12:06:13.743Z,48.90
2022-11-12T12:09:44.111Z,45.10
2022-11-12T12:13:15.702Z,41.90
2022-11-12T12:16:33.821Z,39.70
2022-11-12T12:19:53.567Z,36.90
2022-11-12T12:23:03.252Z,35.40
2022-11-12T12:26:18.157Z,34.40
2022-11-12T12:29:28.077Z,32.60
2022-11-12T12:32:52.978Z,33.20
2022-11-12T12:36:09.509Z,30.90
2022-11-12T12:39:27.061Z,31.40
2022-11-12T12:42:42.776Z,29.30
2022-11-12T12:45:48.531Z,28.10
2022-11-12T12:48:55.251Z,27.90
2022-11-12T12:51:59.853Z,26.90
2022-11-12T12:55:35.062Z,26.80
2022-11-12T12:58:50.539Z,25.90
2022-11-12T13:01:58.926Z,25.30
2022-11-12T13:05:03.794Z,25.30
2022-11-12T13:08:14.306Z,25.50
2022-11-12T13:12:05.336Z,25.60
2022-11-12T13:15:15.447Z,25.40
2022-11-12T13:18:38.137Z,25.40
2022-11-12T13:21:47.413Z,25.90
2022-11-12T13:25:10.640Z,25.50
2022-11-12T13:28:15.189Z,24.90
2022-11-12T13:31:28.524Z,24.80
2022-11-12T13:34:33.756Z,24.40
2022-11-12T13:37:48.146Z,24.30
2022-11-12T13:41:05.549Z,24.20
2022-11-12T13:44:15.887Z,24.30
2022-11-12T13:47:24.694Z,24.30
2022-11-12T13:50:29.244Z,24.60
2022-11-12T13:53:33.797Z,24.70
2022-11-12T13:56:39.069Z,24.90
2022-11-12T13:59:43.485Z,25.00
2022-11-12T14:03:04.621Z,24.90
2022-11-12T14:06:28.502Z,24.80
2022-11-12T14:09:56.192Z,25.30
2022-11-12T14:13:22.578Z,25.70
2022-11-12T14:16:44.362Z,25.90
2022-11-12T14:20:03.628Z,25.90
2022-11-12T14:23:24.426Z,25.50
2022-11-12T14:26:42.898Z,25.20
2022-11-12T14:29:48.792Z,25.20
2022-11-12T14:32:59.276Z,25.10
2022-11-12T14:36:15.579Z,25.40
2022-11-12T14:39:22.352Z,25.40
2022-11-12T14:42:26.634Z,25.10
2022-11-12T14:45:35.142Z,25.40
2022-11-12T14:49:28.014Z,25.70
2022-11-12T14:52:37.412Z,25.90
2022-11-12T14:55:47.399Z,26.20
2022-11-12T14:58:53.766Z,26.30
2022-11-12T15:02:31.305Z,26.70
2022-11-12T15:06:12.956Z,27.10
2022-11-12T15:09:21.803Z,27.50
2022-11-12T15:12:32.861Z,27.90
2022-11-12T15:15:40.856Z,28.50
2022-11-12T15:18:56.519Z,28.80
2022-11-12T15:22:03.383Z,29.50
2022-11-12T15:25:18.268Z,31.30
2022-11-12T15:28:27.423Z,33.80
2022-11-12T15:31:31.438Z,35.70
2022-11-12T15:34:42.131Z,37.60
2022-11-12T15:37:46.978Z,39.20
2022-11-12T15:41:18.744Z,39.80
2022-11-12T15:44:24.222Z,41.60
2022-11-12T15:47:29.233Z,43.80
2022-11-12T15:50:33.369Z,45.60
2022-11-12T15:53:37.829Z,47.30
2022-11-12T15:56:43.060Z,48.90
2022-11-12T16:00:06.295Z,50.40
2022-11-12T16:03:16.155Z,51.80
2022-11-12T16:06:20.568Z,53.00
2022-11-12T16:09:24.548Z,54.30
2022-11-12T16:12:29.659Z,55.20
2022-11-12T16:15:33.876Z,56.10
2022-11-12T16:18:38.138Z,57.00
2022-11-12T16:21:42.770Z,57.80
2022-11-12T16:24:49.938Z,58.60
2022-11-12T16:27:55.992Z,59.40
2022-11-12T16:31:00.552Z,60.00
2022-11-12T16:34:04.589Z,61.10
2022-11-12T16:37:13.302Z,62.10
2022-11-12T16:40:23.362Z,63.10
2022-11-12T16:43:28.228Z,64.10
2022-11-12T16:46:40.231Z,64.80
2022-11-12T16:49:47.583Z,65.50
2022-11-12T16:52:55.729Z,66.20
2022-11-12T16:56:02.745Z,66.90
2022-11-12T16:59:07.301Z,67.50
2022-11-12T17:02:15.457Z,68.00
2022-11-12T17:05:25.596Z,69.40
2022-11-12T17:08:33.889Z,69.30
2022-11-12T17:11:38.894Z,70.50
2022-11-12T17:14:45.994Z,70.20
2022-11-12T17:17:54.010Z,70.80
2022-11-12T17:21:14.254Z,71.60
2022-11-12T17:24:21.644Z,72.00
2022-11-12T17:27:25.788Z,72.50
2022-11-12T17:30:30.276Z,72.90
2022-11-12T17:33:38.351Z,73.20
2022-11-12T17:36:43.913Z,73.90
2022-11-12T17:39:51.269Z,74.20
2022-11-12T17:42:55.603Z,74.50
2022-11-12T17:46:04.802Z,74.90
2022-11-12T17:49:09.617Z,75.30
2022-11-12T17:52:14.129Z,75.50
2022-11-12T17:55:18.408Z,76.00
2022-11-12T17:58:22.761Z,76.30
2022-11-12T18:01:29.260Z,76.70
2022-11-12T18:04:33.882Z,77.30
2022-11-12T18:07:38.247Z,77.60
2022-11-12T18:10:45.039Z,78.10
2022-11-12T18:13:49.628Z,78.50
2022-11-12T18:16:53.742Z,78.70
2022-11-12T18:19:58.093Z,79.10
2022-11-12T18:23:02.450Z,79.50
2022-11-12T18:26:06.973Z,79.90
2022-11-12T18:29:12.509Z,80.30
2022-11-12T18:32:20.847Z,80.90
2022-11-12T18:35:29.640Z,81.40
2022-11-12T18:38:35.029Z,82.40
2022-11-12T18:41:39.439Z,82.20
2022-11-12T18:44:43.510Z,82.30
2022-11-12T18:47:48.121Z,82.50
2022-11-12T18:50:52.366Z,82.60
2022-11-12T18:53:56.970Z,82.70
2022-11-12T18:57:01.569Z,83.20
2022-11-12T19:00:06.083Z,83.20
2022-11-12T19:03:10.499Z,83.60
2022-11-12T19:06:15.626Z,84.00
2022-11-12T19:09:20.043Z,84.00
2022-11-12T19:12:24.281Z,85.00
2022-11-12T19:15:28.489Z,84.60
2022-11-12T19:18:35.773Z,84.60
2022-11-12T19:21:39.954Z,84.80
2022-11-12T19:24:44.466Z,85.30
2022-11-12T19:27:49.169Z,85.50
2022-11-12T19:30:53.414Z,85.70
2022-11-12T19:33:57.855Z,86.20
2022-11-12T19:40:26.451Z,86.40
2022-11-12T19:43:31.381Z,86.70
2022-11-12T19:46:36.398Z,87.00
2022-11-12T19:49:40.723Z,87.20
2022-11-12T19:52:45.360Z,87.30
2022-11-12T19:55:49.621Z,87.60
2022-11-12T19:58:55.000Z,87.90
2022-11-12T20:01:59.399Z,89.00
2022-11-12T20:05:04.708Z,88.20
2022-11-12T20:08:09.269Z,88.50
2022-11-12T20:11:18.019Z,88.50
2022-11-12T20:14:22.415Z,88.60
2022-11-12T20:17:29.405Z,89.00
2022-11-12T20:20:34.030Z,88.90
2022-11-12T20:23:40.823Z,89.00
2022-11-12T20:26:45.354Z,89.20
2022-11-12T20:29:49.847Z,89.20
2022-11-12T20:32:53.906Z,89.40
2022-11-12T20:36:16.283Z,89.70
2022-11-12T20:39:20.640Z,90.00
2022-11-12T20:42:24.911Z,90.10
2022-11-12T20:45:29.329Z,90.20
2022-11-12T20:48:33.602Z,90.20
2022-11-12T20:51:37.890Z,90.20
2022-11-12T20:54:42.272Z,90.20
2022-11-12T20:57:46.732Z,90.20
2022-11-12T21:00:51.092Z,90.30
2022-11-12T21:03:56.750Z,90.30
2022-11-12T21:07:05.285Z,90.40
2022-11-12T21:10:10.171Z,90.40
2022-11-12T21:13:15.876Z,90.50
2022-11-12T21:16:20.318Z,90.50
2022-11-12T21:19:26.111Z,90.60
2022-11-12T21:22:32.102Z,90.60
2022-11-12T21:25:40.173Z,90.70
2022-11-12T21:28:50.722Z,90.70
2022-11-12T21:31:54.672Z,90.80
2022-11-12T21:34:59.270Z,90.90
2022-11-12T21:38:03.354Z,90.90
2022-11-12T21:41:19.815Z,90.90
2022-11-12T21:44:24.362Z,90.90
2022-11-12T21:47:28.943Z,91.00
2022-11-12T21:50:33.661Z,91.00
2022-11-12T21:53:38.802Z,91.00
2022-11-12T21:56:45.057Z,91.10
2022-11-12T21:59:49.436Z,91.10
2022-11-12T22:02:58.046Z,91.20
2022-11-12T22:06:02.771Z,91.30
2022-11-12T22:09:07.137Z,91.30
2022-11-12T22:12:11.972Z,91.30
2022-11-12T22:15:20.053Z,91.40
2022-11-12T22:18:28.552Z,91.40
2022-11-12T22:21:39.518Z,91.50
2022-11-12T22:24:44.121Z,91.50
2022-11-12T22:27:48.527Z,91.50
2022-11-12T22:30:53.002Z,91.60
2022-11-12T22:33:59.722Z,91.60
2022-11-12T22:37:03.764Z,91.70
2022-11-12T22:40:13.175Z,91.70
2022-11-12T22:43:17.661Z,91.80
2022-11-12T22:46:27.199Z,91.90
2022-11-12T22:49:33.346Z,91.90
2022-11-12T22:52:37.891Z,92.00
2022-11-12T22:55:42.298Z,92.00
2022-11-12T22:58:47.567Z,92.20
2022-11-12T23:01:52.109Z,92.30
2022-11-12T23:04:56.011Z,92.40
2022-11-12T23:08:04.285Z,92.30
2022-11-12T23:11:10.921Z,92.20
2022-11-12T23:14:15.203Z,92.30
2022-11-12T23:17:19.622Z,92.40
2022-11-12T23:20:24.290Z,92.20
2022-11-12T23:23:28.762Z,92.20
2022-11-12T23:26:33.402Z,92.40
2022-11-12T23:29:37.713Z,92.40
2022-11-12T23:32:42.134Z,92.50
2022-11-12T23:35:46.939Z,92.30
2022-11-12T23:38:51.908Z,92.30
2022-11-12T23:41:56.203Z,92.30
2022-11-12T23:45:00.545Z,92.40
2022-11-12T23:48:05.333Z,92.40
2022-11-12T23:51:18.969Z,92.50
2022-11-12T23:54:22.971Z,92.60
2022-11-12T23:57:27.173Z,92.50
